createdAt,value
2018-08-09T00:00:13.841Z,22.36
2018-08-09T00:02:26.102Z,22.26
2018-08-09T00:04:38.262Z,22.19
2018-08-09T00:06:50.569Z,22.16
2018-08-09T00:09:03.354Z,22.16
2018-08-09T00:11:15.619Z,22.17
2018-08-09T00:13:27.828Z,22.19
2018-08-09T00:15:40.077Z,22.19
2018-08-09T00:17:52.272Z,22.16
2018-08-09T00:20:04.878Z,22.16
2018-08-09T00:22:17.053Z,22.19
2018-08-09T00:24:29.254Z,22.23
2018-08-09T00:26:41.432Z,22.21
2018-08-09T00:28:53.609Z,22.18
2018-08-09T00:31:05.917Z,22.14
2018-08-09T00:33:18.114Z,22.05
2018-08-09T00:35:30.310Z,21.94
2018-08-09T00:37:42.489Z,21.85
2018-08-09T00:39:54.736Z,21.83
2018-08-09T00:42:06.933Z,21.79
2018-08-09T00:44:19.198Z,21.80
2018-08-09T00:46:31.467Z,21.79
2018-08-09T00:48:43.654Z,21.78
2018-08-09T00:50:55.862Z,21.78
2018-08-09T00:53:08.026Z,21.73
2018-08-09T00:55:20.229Z,21.73
2018-08-09T00:57:32.463Z,21.70
2018-08-09T00:59:44.642Z,21.62
2018-08-09T01:01:56.838Z,21.55
2018-08-09T01:04:09.002Z,21.60
2018-08-09T01:06:21.219Z,21.66
2018-08-09T01:08:33.389Z,21.63
2018-08-09T01:10:45.546Z,21.60
2018-08-09T01:12:57.751Z,21.64
2018-08-09T01:15:10.019Z,21.65
2018-08-09T01:17:22.243Z,21.65
2018-08-09T01:19:34.446Z,21.64
2018-08-09T01:21:46.652Z,21.69
2018-08-09T01:23:59.286Z,21.69
2018-08-09T01:26:11.467Z,21.72
2018-08-09T01:28:23.748Z,21.72
2018-08-09T01:30:35.966Z,21.70
2018-08-09T01:32:48.150Z,21.60
2018-08-09T01:35:00.347Z,21.57
2018-08-09T01:37:12.563Z,21.57
2018-08-09T01:39:24.811Z,21.52
2018-08-09T01:41:37.074Z,21.52
2018-08-09T01:43:58.978Z,21.53
2018-08-09T01:46:11.223Z,21.50
2018-08-09T01:48:23.382Z,21.48
2018-08-09T01:50:35.575Z,21.48
2018-08-09T01:52:47.733Z,21.47
2018-08-09T01:55:00.298Z,21.43
2018-08-09T01:57:12.498Z,21.41
2018-08-09T01:59:24.668Z,21.34
2018-08-09T02:01:36.827Z,21.23
2018-08-09T02:03:49.086Z,21.16
2018-08-09T02:06:01.276Z,21.05
2018-08-09T02:08:13.513Z,20.97
2018-08-09T02:10:25.738Z,20.96
2018-08-09T02:12:37.913Z,20.97
2018-08-09T02:14:50.125Z,21.00
2018-08-09T02:17:02.323Z,21.02
2018-08-09T02:19:14.510Z,21.03
2018-08-09T02:21:26.734Z,21.01
2018-08-09T02:23:38.890Z,20.98
2018-08-09T02:25:51.091Z,20.97
2018-08-09T02:28:03.293Z,20.87
2018-08-09T02:30:15.482Z,20.79
2018-08-09T02:32:27.661Z,20.80
2018-08-09T02:34:39.871Z,20.76
2018-08-09T02:36:52.050Z,20.72
2018-08-09T02:39:06.326Z,20.64
2018-08-09T02:41:18.509Z,20.62
2018-08-09T02:43:30.687Z,20.58
2018-08-09T02:45:42.868Z,20.58
2018-08-09T02:47:55.059Z,20.56
2018-08-09T02:50:07.246Z,20.58
2018-08-09T02:52:19.439Z,20.55
2018-08-09T02:54:31.596Z,20.52
2018-08-09T02:56:43.789Z,20.52
2018-08-09T02:58:56.076Z,20.50
2018-08-09T03:01:08.289Z,20.51
2018-08-09T03:03:20.519Z,20.54
2018-08-09T03:05:33.526Z,20.53
2018-08-09T03:07:45.729Z,20.55
2018-08-09T03:09:57.878Z,20.51
2018-08-09T03:12:10.121Z,20.48
2018-08-09T03:14:22.286Z,20.49
2018-08-09T03:16:34.497Z,20.47
2018-08-09T03:18:46.710Z,20.42
2018-08-09T03:20:58.889Z,20.36
2018-08-09T03:23:11.085Z,20.29
2018-08-09T03:25:23.384Z,20.20
2018-08-09T03:27:35.594Z,20.14
2018-08-09T03:29:47.761Z,20.07
2018-08-09T03:31:59.945Z,20.05
2018-08-09T03:34:12.123Z,20.02
2018-08-09T03:36:24.279Z,20.02
2018-08-09T03:38:36.442Z,20.00
2018-08-09T03:40:48.635Z,20.01
2018-08-09T03:43:00.827Z,20.01
2018-08-09T03:45:13.023Z,20.02
2018-08-09T03:47:25.235Z,20.01
2018-08-09T03:49:37.438Z,19.99
2018-08-09T03:51:49.627Z,20.04
2018-08-09T03:54:01.787Z,20.04
2018-08-09T03:56:14.010Z,20.05
2018-08-09T03:58:26.204Z,20.05
2018-08-09T04:00:38.396Z,20.02
2018-08-09T04:02:50.630Z,20.01
2018-08-09T04:05:03.235Z,19.99
2018-08-09T04:07:15.454Z,19.96
2018-08-09T04:09:27.613Z,19.98
2018-08-09T04:11:40.321Z,19.99
2018-08-09T04:13:52.465Z,20.03
2018-08-09T04:16:04.978Z,20.03
2018-08-09T04:18:17.145Z,19.98
2018-08-09T04:20:29.331Z,20.00
2018-08-09T04:22:41.970Z,19.98
2018-08-09T04:24:54.130Z,20.00
2018-08-09T04:27:06.322Z,20.00
2018-08-09T04:29:18.538Z,20.03
2018-08-09T04:31:30.710Z,20.05
2018-08-09T04:33:42.907Z,20.09
2018-08-09T04:35:55.085Z,20.16
2018-08-09T04:38:07.307Z,20.19
2018-08-09T04:40:19.492Z,20.22
2018-08-09T04:42:31.669Z,20.23
2018-08-09T04:44:43.868Z,20.26
2018-08-09T04:46:56.246Z,20.30
2018-08-09T04:49:08.504Z,20.33
2018-08-09T04:51:20.650Z,20.38
2018-08-09T04:53:32.806Z,20.39
2018-08-09T04:55:45.021Z,20.34
2018-08-09T04:57:57.241Z,20.33
2018-08-09T05:00:09.490Z,20.36
2018-08-09T05:02:21.746Z,20.43
2018-08-09T05:04:33.950Z,20.53
2018-08-09T05:06:46.231Z,20.61
2018-08-09T05:08:58.401Z,20.74
2018-08-09T05:11:10.623Z,20.82
2018-08-09T05:13:22.823Z,20.86
2018-08-09T05:15:35.030Z,20.91
2018-08-09T05:17:47.202Z,20.93
2018-08-09T05:19:59.528Z,21.00
2018-08-09T05:22:11.762Z,21.06
2018-08-09T05:24:23.953Z,21.15
2018-08-09T05:26:36.128Z,21.21
2018-08-09T05:28:48.318Z,21.27
2018-08-09T05:31:00.510Z,21.32
2018-08-09T05:33:12.703Z,21.35
2018-08-09T05:35:24.857Z,21.40
2018-08-09T05:37:37.365Z,21.45
2018-08-09T05:39:49.583Z,21.50
2018-08-09T05:42:01.796Z,21.57
2018-08-09T05:44:14.005Z,21.67
2018-08-09T05:46:26.174Z,21.74
2018-08-09T05:48:38.365Z,21.80
2018-08-09T05:50:50.530Z,21.88
2018-08-09T05:53:02.755Z,21.94
2018-08-09T05:55:14.938Z,21.99
2018-08-09T05:57:27.122Z,22.03
2018-08-09T05:59:39.366Z,22.07
2018-08-09T06:01:51.641Z,22.11
2018-08-09T06:04:03.927Z,22.15
2018-08-09T06:06:16.149Z,22.19
2018-08-09T06:08:28.341Z,22.25
2018-08-09T06:10:40.555Z,22.29
2018-08-09T06:12:52.785Z,22.38
2018-08-09T06:15:05.025Z,22.45
2018-08-09T06:17:17.267Z,22.48
2018-08-09T06:19:29.462Z,22.47
2018-08-09T06:21:41.708Z,22.50
2018-08-09T06:23:53.878Z,22.60
2018-08-09T06:26:06.093Z,22.69
2018-08-09T06:28:18.400Z,22.84
2018-08-09T06:30:30.638Z,23.04
2018-08-09T06:32:42.879Z,23.26
2018-08-09T06:34:55.077Z,23.48
2018-08-09T06:37:07.314Z,23.70
2018-08-09T06:39:19.542Z,23.90
2018-08-09T06:41:31.705Z,24.15
2018-08-09T06:43:43.884Z,24.35
2018-08-09T06:45:56.054Z,24.60
2018-08-09T06:48:08.382Z,24.78
2018-08-09T06:50:20.565Z,24.91
2018-08-09T06:52:32.731Z,25.03
2018-08-09T06:54:44.927Z,25.08
2018-08-09T06:56:57.386Z,25.16
2018-08-09T06:59:09.582Z,25.39
2018-08-09T07:01:21.778Z,25.79
2018-08-09T07:03:33.952Z,26.26
2018-08-09T07:05:46.157Z,26.71
2018-08-09T07:07:58.339Z,27.12
2018-08-09T07:10:10.582Z,27.38
2018-08-09T07:12:22.778Z,27.69
2018-08-09T07:14:34.961Z,28.00
2018-08-09T07:16:47.206Z,28.29
2018-08-09T07:18:59.425Z,28.62
2018-08-09T07:21:11.614Z,28.87
2018-08-09T07:23:23.822Z,28.97
2018-08-09T07:25:36.038Z,29.00
2018-08-09T07:27:48.311Z,29.15
2018-08-09T07:30:00.481Z,29.25
2018-08-09T07:32:12.667Z,29.38
2018-08-09T07:34:24.842Z,29.58
2018-08-09T07:36:37.064Z,29.68
2018-08-09T07:38:49.290Z,29.73
2018-08-09T07:41:01.777Z,29.89
2018-08-09T07:43:14.027Z,30.11
2018-08-09T07:45:26.194Z,30.36
2018-08-09T07:47:38.428Z,30.50
2018-08-09T07:49:50.882Z,30.67
2018-08-09T07:52:03.370Z,30.72
2018-08-09T07:54:15.625Z,30.77
2018-08-09T07:56:27.843Z,30.57
2018-08-09T07:58:40.130Z,30.30
2018-08-09T08:00:52.312Z,30.03
2018-08-09T08:03:04.581Z,29.86
2018-08-09T08:05:16.774Z,30.05
2018-08-09T08:07:28.990Z,30.36
2018-08-09T08:09:41.199Z,30.71
2018-08-09T08:11:53.386Z,30.80
2018-08-09T08:14:05.653Z,30.86
2018-08-09T08:16:17.923Z,30.97
2018-08-09T08:18:30.179Z,31.08
2018-08-09T08:20:42.400Z,31.09
2018-08-09T08:22:54.613Z,30.89
2018-08-09T08:25:07.174Z,30.59
2018-08-09T08:27:19.389Z,30.59
2018-08-09T08:29:31.652Z,30.64
2018-08-09T08:31:43.950Z,30.67
2018-08-09T08:33:56.175Z,30.59
2018-08-09T08:36:08.485Z,30.61
2018-08-09T08:38:20.678Z,30.66
2018-08-09T08:40:32.903Z,30.73
2018-08-09T08:42:45.123Z,30.84
2018-08-09T08:44:57.320Z,31.00
2018-08-09T08:47:09.626Z,31.22
2018-08-09T08:49:21.838Z,31.52
2018-08-09T08:51:34.030Z,31.64
2018-08-09T08:53:46.670Z,31.85
2018-08-09T08:55:58.906Z,32.09
2018-08-09T08:58:11.148Z,32.30
2018-08-09T09:00:23.379Z,32.46
2018-08-09T09:02:35.756Z,32.29
2018-08-09T09:04:48.012Z,32.29
2018-08-09T09:07:00.289Z,32.47
2018-08-09T09:09:13.267Z,32.46
2018-08-09T09:11:25.459Z,32.58
2018-08-09T09:13:37.657Z,32.51
2018-08-09T09:15:49.902Z,32.60
2018-08-09T09:18:02.159Z,32.61
2018-08-09T09:20:15.610Z,32.81
2018-08-09T09:22:27.807Z,32.84
2018-08-09T09:24:40.055Z,32.96
2018-08-09T09:26:52.254Z,32.99
2018-08-09T09:29:04.459Z,33.05
2018-08-09T09:31:16.677Z,33.09
2018-08-09T09:33:28.909Z,33.04
2018-08-09T09:35:41.150Z,32.98
2018-08-09T09:37:53.373Z,32.90
2018-08-09T09:40:06.349Z,33.04
2018-08-09T09:42:18.609Z,33.10
2018-08-09T09:44:30.826Z,33.12
2018-08-09T09:46:43.054Z,33.18
2018-08-09T09:48:55.309Z,33.26
2018-08-09T09:51:07.565Z,33.30
2018-08-09T09:53:19.782Z,33.48
2018-08-09T09:55:32.006Z,33.67
2018-08-09T09:57:44.221Z,33.89
2018-08-09T09:59:56.420Z,34.05
2018-08-09T10:02:08.675Z,34.16
2018-08-09T10:04:20.885Z,34.15
2018-08-09T10:06:33.830Z,34.20
2018-08-09T10:08:46.042Z,34.40
2018-08-09T10:10:58.255Z,34.46
2018-08-09T10:13:10.527Z,34.46
2018-08-09T10:15:22.745Z,34.44
2018-08-09T10:17:35.420Z,34.43
2018-08-09T10:19:47.679Z,34.30
2018-08-09T10:21:59.907Z,34.34
2018-08-09T10:24:12.113Z,34.47
2018-08-09T10:26:24.326Z,34.71
2018-08-09T10:28:36.547Z,34.75
2018-08-09T10:30:48.763Z,34.68
2018-08-09T10:33:01.038Z,34.63
2018-08-09T10:35:13.244Z,34.65
2018-08-09T10:37:25.485Z,34.83
2018-08-09T10:39:37.703Z,35.02
2018-08-09T10:41:49.915Z,35.25
2018-08-09T10:44:02.210Z,35.23
2018-08-09T10:46:14.427Z,35.11
2018-08-09T10:48:26.699Z,35.00
2018-08-09T10:50:38.934Z,34.91
2018-08-09T10:52:51.109Z,34.67
2018-08-09T10:55:03.582Z,34.77
2018-08-09T10:57:15.766Z,34.87
2018-08-09T10:59:27.907Z,35.05
2018-08-09T11:01:40.160Z,35.14
2018-08-09T11:03:52.904Z,35.15
2018-08-09T11:06:05.254Z,34.94
2018-08-09T11:08:17.450Z,34.97
2018-08-09T11:10:29.690Z,34.95
2018-08-09T11:12:41.888Z,34.99
2018-08-09T11:14:54.094Z,35.03
2018-08-09T11:17:06.346Z,35.02
2018-08-09T11:19:18.589Z,35.06
2018-08-09T11:21:30.843Z,35.05
2018-08-09T11:23:43.055Z,35.02
2018-08-09T11:25:55.610Z,34.94
2018-08-09T11:28:07.854Z,34.94
2018-08-09T11:30:20.092Z,34.90
2018-08-09T11:32:32.291Z,34.93
2018-08-09T11:34:44.495Z,35.05
2018-08-09T11:36:56.834Z,35.06
2018-08-09T11:39:10.773Z,35.10
2018-08-09T11:41:22.949Z,35.08
2018-08-09T11:43:35.138Z,35.12
2018-08-09T11:45:47.366Z,35.00
2018-08-09T11:47:59.634Z,34.89
2018-08-09T11:50:11.891Z,34.87
2018-08-09T11:52:24.242Z,34.83
2018-08-09T11:54:36.554Z,34.77
2018-08-09T11:56:48.821Z,34.85
2018-08-09T11:59:01.002Z,34.89
2018-08-09T12:01:13.233Z,34.73
2018-08-09T12:03:25.797Z,34.75
2018-08-09T12:05:38.020Z,34.86
2018-08-09T12:07:50.193Z,34.96
2018-08-09T12:10:02.454Z,34.96
2018-08-09T12:12:14.698Z,34.84
2018-08-09T12:14:26.950Z,34.81
2018-08-09T12:16:39.138Z,34.68
2018-08-09T12:18:51.335Z,34.47
2018-08-09T12:21:03.594Z,34.44
2018-08-09T12:23:15.918Z,34.55
2018-08-09T12:25:28.211Z,34.50
2018-08-09T12:27:40.455Z,34.47
2018-08-09T12:29:52.661Z,34.58
2018-08-09T12:32:05.476Z,34.61
2018-08-09T12:34:17.838Z,34.59
2018-08-09T12:36:30.122Z,34.54
2018-08-09T12:38:42.296Z,34.42
2018-08-09T12:40:54.547Z,34.38
2018-08-09T12:43:06.850Z,34.39
2018-08-09T12:45:19.197Z,34.20
2018-08-09T12:47:31.447Z,34.16
2018-08-09T12:49:43.734Z,34.21
2018-08-09T12:51:56.043Z,34.27
2018-08-09T12:54:08.284Z,34.35
2018-08-09T12:56:20.488Z,34.32
2018-08-09T12:58:32.706Z,34.31
2018-08-09T13:00:44.895Z,34.31
2018-08-09T13:02:57.119Z,34.21
2018-08-09T13:05:10.790Z,34.06
2018-08-09T13:07:22.986Z,34.08
2018-08-09T13:09:35.245Z,34.17
2018-08-09T13:11:47.448Z,34.15
2018-08-09T13:13:59.717Z,34.04
2018-08-09T13:16:11.992Z,34.11
2018-08-09T13:18:24.202Z,34.24
2018-08-09T13:20:36.378Z,34.34
2018-08-09T13:22:49.949Z,34.34
2018-08-09T13:25:02.197Z,34.32
2018-08-09T13:27:14.595Z,34.36
2018-08-09T13:29:26.851Z,34.32
2018-08-09T13:31:39.087Z,34.32
2018-08-09T13:33:51.419Z,34.38
2018-08-09T13:36:03.641Z,34.29
2018-08-09T13:38:15.880Z,33.80
2018-08-09T13:40:28.124Z,33.05
2018-08-09T13:42:40.930Z,32.17
2018-08-09T13:44:53.266Z,31.34
2018-08-09T13:47:05.550Z,30.58
2018-08-09T13:49:17.806Z,29.90
2018-08-09T13:51:30.172Z,29.31
2018-08-09T13:53:42.319Z,28.94
2018-08-09T13:55:54.575Z,28.58
2018-08-09T13:58:06.821Z,28.22
2018-08-09T14:00:19.034Z,27.90
2018-08-09T14:02:31.290Z,27.65
2018-08-09T14:04:43.556Z,27.32
2018-08-09T14:06:55.826Z,26.86
2018-08-09T14:09:10.287Z,26.45
2018-08-09T14:11:22.548Z,26.12
2018-08-09T14:13:34.811Z,25.64
2018-08-09T14:15:47.024Z,25.28
2018-08-09T14:17:59.309Z,24.95
2018-08-09T14:20:14.417Z,24.82
2018-08-09T14:22:26.634Z,24.75
2018-08-09T14:24:38.927Z,24.74
2018-08-09T14:26:51.134Z,24.68
2018-08-09T14:29:04.014Z,24.70
2018-08-09T14:31:16.347Z,24.73
2018-08-09T14:33:28.575Z,24.78
2018-08-09T14:35:40.787Z,24.89
2018-08-09T14:37:53.010Z,24.96
2018-08-09T14:40:06.256Z,24.91
2018-08-09T14:42:18.669Z,24.86
2018-08-09T14:44:30.845Z,24.82
2018-08-09T14:46:43.048Z,24.84
2018-08-09T14:48:55.326Z,24.92
2018-08-09T14:51:07.582Z,25.04
2018-08-09T14:53:19.813Z,25.18
2018-08-09T14:55:32.047Z,25.25
2018-08-09T14:57:44.290Z,25.15
2018-08-09T14:59:56.556Z,25.10
2018-08-09T15:02:08.913Z,25.12
2018-08-09T15:04:21.128Z,24.99
2018-08-09T15:06:33.444Z,25.12
2018-08-09T15:08:45.653Z,25.22
2018-08-09T15:10:57.878Z,25.31
2018-08-09T15:13:10.125Z,25.35
2018-08-09T15:15:22.374Z,25.28
2018-08-09T15:17:34.581Z,25.23
2018-08-09T15:19:46.806Z,25.11
2018-08-09T15:21:59.084Z,25.02
2018-08-09T15:24:11.362Z,24.92
2018-08-09T15:26:23.592Z,24.91
2018-08-09T15:28:36.204Z,24.98
2018-08-09T15:30:48.470Z,24.95
2018-08-09T15:33:00.687Z,24.83
2018-08-09T15:35:13.373Z,24.87
2018-08-09T15:37:25.641Z,24.83
2018-08-09T15:39:37.871Z,24.82
2018-08-09T15:41:50.097Z,24.82
2018-08-09T15:44:02.371Z,24.84
2018-08-09T15:46:14.597Z,24.88
2018-08-09T15:48:27.027Z,24.85
2018-08-09T15:50:39.189Z,24.83
2018-08-09T15:52:51.462Z,24.81
2018-08-09T15:55:04.236Z,24.88
2018-08-09T15:57:16.446Z,24.91
2018-08-09T15:59:28.693Z,24.91
2018-08-09T16:01:41.308Z,24.95
2018-08-09T16:03:53.628Z,24.89
2018-08-09T16:06:05.847Z,24.90
2018-08-09T16:08:18.145Z,24.93
2018-08-09T16:10:30.378Z,25.01
2018-08-09T16:12:42.739Z,25.02
2018-08-09T16:14:54.999Z,25.12
2018-08-09T16:17:07.621Z,25.25
2018-08-09T16:19:19.946Z,25.28
2018-08-09T16:21:32.322Z,25.25
2018-08-09T16:23:44.530Z,25.28
2018-08-09T16:25:56.863Z,25.36
2018-08-09T16:28:10.314Z,25.47
2018-08-09T16:30:24.679Z,25.64
2018-08-09T16:32:36.980Z,25.61
2018-08-09T16:34:49.242Z,25.60
2018-08-09T16:37:01.539Z,25.71
2018-08-09T16:39:14.346Z,25.76
2018-08-09T16:41:26.581Z,25.80
2018-08-09T16:43:38.855Z,25.82
2018-08-09T16:45:51.111Z,25.81
2018-08-09T16:48:03.582Z,25.78
2018-08-09T16:50:18.035Z,25.73
2018-08-09T16:52:30.251Z,25.68
2018-08-09T16:54:42.438Z,25.68
2018-08-09T16:56:54.632Z,25.63
2018-08-09T16:59:06.892Z,25.64
2018-08-09T17:01:19.123Z,25.66
2018-08-09T17:03:31.545Z,25.69
2018-08-09T17:05:43.813Z,25.65
2018-08-09T17:07:56.509Z,25.68
2018-08-09T17:10:09.699Z,25.64
2018-08-09T17:12:21.938Z,25.61
2018-08-09T17:14:34.170Z,25.54
2018-08-09T17:16:46.414Z,25.52
2018-08-09T17:18:58.675Z,25.46
2018-08-09T17:21:11.049Z,25.44
2018-08-09T17:23:23.286Z,25.43
2018-08-09T17:25:35.548Z,25.47
2018-08-09T17:27:48.573Z,25.42
2018-08-09T17:30:00.789Z,25.42
2018-08-09T17:32:13.053Z,25.40
2018-08-09T17:34:25.287Z,25.35
2018-08-09T17:36:37.568Z,25.32
2018-08-09T17:38:49.789Z,25.24
2018-08-09T17:41:02.078Z,25.12
2018-08-09T17:43:14.331Z,24.93
2018-08-09T17:45:28.839Z,24.87
2018-08-09T17:47:41.150Z,24.78
2018-08-09T17:49:53.400Z,24.73
2018-08-09T17:52:05.866Z,24.64
2018-08-09T17:54:18.117Z,24.52
2018-08-09T17:56:30.462Z,24.35
2018-08-09T17:58:42.671Z,24.24
2018-08-09T18:00:54.975Z,24.07
2018-08-09T18:03:07.316Z,24.06
2018-08-09T18:05:19.532Z,23.99
2018-08-09T18:07:31.814Z,23.98
2018-08-09T18:09:44.027Z,23.99
2018-08-09T18:11:56.274Z,23.79
2018-08-09T18:14:08.543Z,23.73
2018-08-09T18:16:20.843Z,23.71
2018-08-09T18:18:33.288Z,23.52
2018-08-09T18:20:45.486Z,23.62
2018-08-09T18:22:58.216Z,23.70
2018-08-09T18:25:11.614Z,23.71
2018-08-09T18:27:23.951Z,23.70
2018-08-09T18:29:36.296Z,23.76
2018-08-09T18:31:48.612Z,23.74
2018-08-09T18:34:00.867Z,23.75
2018-08-09T18:36:13.106Z,23.70
2018-08-09T18:38:25.374Z,23.78
2018-08-09T18:40:37.624Z,23.82
2018-08-09T18:42:49.961Z,23.87
2018-08-09T18:45:02.237Z,23.84
2018-08-09T18:47:14.486Z,23.83
2018-08-09T18:49:26.696Z,23.77
2018-08-09T18:51:38.927Z,23.70
2018-08-09T18:53:51.127Z,23.65
2018-08-09T18:56:03.422Z,23.66
2018-08-09T18:58:15.707Z,23.61
2018-08-09T19:00:29.241Z,23.60
2018-08-09T19:02:41.947Z,23.63
2018-08-09T19:04:54.204Z,23.61
2018-08-09T19:07:06.571Z,23.52
2018-08-09T19:09:18.859Z,23.47
2018-08-09T19:11:31.160Z,23.44
2018-08-09T19:13:43.371Z,23.48
2018-08-09T19:15:55.656Z,23.49
2018-08-09T19:18:07.934Z,23.48
2018-08-09T19:20:25.459Z,23.63
2018-08-09T19:22:37.785Z,23.53
2018-08-09T19:24:50.069Z,23.55
2018-08-09T19:27:02.498Z,23.54
2018-08-09T19:29:14.662Z,23.52
2018-08-09T19:31:26.962Z,23.66
2018-08-09T19:33:39.224Z,23.64
2018-08-09T19:35:51.461Z,23.50
2018-08-09T19:38:03.746Z,23.47
2018-08-09T19:40:18.769Z,23.45
2018-08-09T19:42:31.067Z,23.35
2018-08-09T19:44:43.385Z,23.30
2018-08-09T19:46:55.601Z,23.40
2018-08-09T19:49:07.874Z,23.42
2018-08-09T19:51:20.114Z,23.49
2018-08-09T19:53:32.371Z,23.61
2018-08-09T19:55:44.673Z,23.64
2018-08-09T19:57:56.968Z,23.58
2018-08-09T20:00:11.510Z,23.59
2018-08-09T20:02:23.764Z,23.65
2018-08-09T20:04:35.994Z,23.75
2018-08-09T20:06:48.271Z,23.83
2018-08-09T20:09:00.422Z,23.87
2018-08-09T20:11:12.655Z,23.83
2018-08-09T20:13:24.922Z,23.70
2018-08-09T20:15:37.218Z,23.61
2018-08-09T20:17:49.500Z,23.53
2018-08-09T20:20:01.752Z,23.47
2018-08-09T20:22:16.339Z,23.40
2018-08-09T20:24:28.567Z,23.37
2018-08-09T20:26:41.175Z,23.38
2018-08-09T20:28:53.424Z,23.30
2018-08-09T20:31:05.811Z,23.15
2018-08-09T20:33:18.068Z,23.09
2018-08-09T20:35:30.432Z,23.07
2018-08-09T20:37:44.571Z,23.01
2018-08-09T20:39:56.887Z,22.98
2018-08-09T20:42:09.164Z,23.00
2018-08-09T20:44:21.458Z,22.97
2018-08-09T20:46:33.745Z,22.77
2018-08-09T20:48:45.991Z,22.68
2018-08-09T20:50:58.266Z,22.60
2018-08-09T20:53:10.523Z,22.58
2018-08-09T20:55:23.071Z,22.58
2018-08-09T20:57:35.428Z,22.66
2018-08-09T20:59:47.732Z,22.73
2018-08-09T21:02:00.063Z,22.56
2018-08-09T21:04:12.271Z,22.35
2018-08-09T21:06:24.531Z,22.17
2018-08-09T21:08:36.773Z,22.04
2018-08-09T21:10:49.092Z,21.93
2018-08-09T21:13:01.836Z,21.81
2018-08-09T21:15:14.491Z,21.65
2018-08-09T21:17:26.611Z,21.52
2018-08-09T21:19:38.879Z,21.43
2018-08-09T21:21:51.106Z,21.42
2018-08-09T21:24:03.494Z,21.37
2018-08-09T21:26:15.758Z,21.36
2018-08-09T21:28:28.001Z,21.26
2018-08-09T21:30:40.242Z,21.23
2018-08-09T21:32:52.573Z,21.31
2018-08-09T21:35:05.093Z,21.29
2018-08-09T21:37:17.282Z,21.23
2018-08-09T21:39:29.549Z,21.20
2018-08-09T21:41:41.784Z,21.22
2018-08-09T21:43:54.038Z,21.33
2018-08-09T21:46:06.250Z,21.46
2018-08-09T21:48:18.498Z,21.44
2018-08-09T21:50:30.719Z,21.40
2018-08-09T21:52:43.026Z,21.31
2018-08-09T21:54:55.286Z,21.35
2018-08-09T21:57:07.542Z,21.43
2018-08-09T21:59:19.826Z,21.40
2018-08-09T22:01:32.086Z,21.36
2018-08-09T22:03:44.350Z,21.25
2018-08-09T22:06:02.218Z,21.19
2018-08-09T22:08:20.065Z,21.23
2018-08-09T22:12:42.371Z,21.28
2018-08-09T22:15:00.231Z,21.33
2018-08-09T22:17:18.202Z,21.29
2018-08-09T22:19:36.070Z,21.25
2018-08-09T22:21:53.996Z,21.17
2018-08-09T22:24:06.288Z,21.14
2018-08-09T22:26:18.608Z,21.09
2018-08-09T22:28:31.141Z,21.08
2018-08-09T22:30:43.342Z,21.06
2018-08-09T22:32:55.578Z,21.04
2018-08-09T22:35:07.771Z,21.05
2018-08-09T22:37:20.549Z,21.07
2018-08-09T22:39:32.800Z,21.04
2018-08-09T22:41:45.001Z,21.04
2018-08-09T22:43:57.212Z,21.04
2018-08-09T22:46:09.467Z,21.04
2018-08-09T22:48:21.705Z,21.07
2018-08-09T22:50:33.942Z,21.14
2018-08-09T22:52:46.148Z,21.24
2018-08-09T22:54:58.391Z,21.37
2018-08-09T22:57:10.561Z,21.39
2018-08-09T22:59:22.757Z,21.50
2018-08-09T23:01:34.922Z,21.47
2018-08-09T23:03:47.208Z,21.45
2018-08-09T23:05:59.428Z,21.54
2018-08-09T23:08:13.062Z,21.58
2018-08-09T23:10:25.321Z,21.69
2018-08-09T23:12:37.574Z,21.76
2018-08-09T23:14:49.759Z,21.80
2018-08-09T23:17:01.988Z,21.82
2018-08-09T23:19:14.266Z,21.85
2018-08-09T23:21:26.645Z,21.84
2018-08-09T23:23:38.927Z,21.86
2018-08-09T23:25:51.158Z,21.88
2018-08-09T23:28:03.398Z,21.82
2018-08-09T23:30:15.642Z,21.84
2018-08-09T23:32:27.967Z,21.79
2018-08-09T23:34:40.485Z,21.72
2018-08-09T23:36:52.696Z,21.61
2018-08-09T23:39:07.998Z,21.57
2018-08-09T23:41:20.282Z,21.51
2018-08-09T23:43:32.462Z,21.46
2018-08-09T23:45:44.648Z,21.32
2018-08-09T23:47:57.085Z,21.20
2018-08-09T23:50:10.887Z,21.15
2018-08-09T23:52:23.091Z,21.14
2018-08-09T23:54:35.303Z,21.08
2018-08-09T23:56:47.496Z,21.03
2018-08-09T23:58:59.788Z,21.02
